Terminal Aerodrome Forecast
Issued by NWS Goodland, KS

Home | Current Version | Previous Version | Text Only | Print | Product List | Glossary On
Versions: 1 2 3 4 5 6 7 8 9 10 11 12 13 14 15 16 17
912
FTUS43 KGLD 220520
TAFGLD
TAF
KGLD 220520Z 2206/2306 13011KT P6SM BKN035
     FM220900 15010KT P6SM BKN025
     FM221200 14010KT P6SM BKN015
      TEMPO 2214/2218 3SM -SN BKN007
     FM222100 13011KT P6SM BKN035=

USA.gov is the U.S. government's official web portal to all federal, state and local government web resources and services.